createdAt,value
2018-01-26T00:01:22.677Z,7.89
2018-01-26T00:03:50.187Z,7.90
2018-01-26T00:06:17.805Z,7.95
2018-01-26T00:08:45.354Z,7.96
2018-01-26T00:11:12.898Z,7.95
2018-01-26T00:13:40.433Z,7.93
2018-01-26T00:16:07.974Z,7.93
2018-01-26T00:18:35.485Z,7.95
2018-01-26T00:21:02.989Z,7.92
2018-01-26T00:23:30.629Z,7.92
2018-01-26T00:25:58.142Z,7.90
2018-01-26T00:28:25.685Z,7.88
2018-01-26T00:30:53.245Z,7.88
2018-01-26T00:33:20.768Z,7.90
2018-01-26T00:35:48.268Z,7.89
2018-01-26T00:38:15.835Z,7.90
2018-01-26T00:40:43.380Z,7.88
2018-01-26T00:43:10.892Z,7.81
2018-01-26T00:45:38.416Z,7.77
2018-01-26T00:48:05.948Z,7.77
2018-01-26T00:50:33.536Z,7.77
2018-01-26T00:53:01.074Z,7.78
2018-01-26T00:55:28.616Z,7.78
2018-01-26T00:57:56.167Z,7.79
2018-01-26T01:00:23.699Z,7.78
2018-01-26T01:02:51.261Z,7.78
2018-01-26T01:05:18.796Z,7.78
2018-01-26T01:07:46.311Z,7.77
2018-01-26T01:10:13.861Z,7.76
2018-01-26T01:12:41.416Z,7.77
2018-01-26T01:15:08.975Z,7.78
2018-01-26T01:17:36.520Z,7.79
2018-01-26T01:20:04.088Z,7.78
2018-01-26T01:22:31.596Z,7.76
2018-01-26T01:24:59.120Z,7.73
2018-01-26T01:27:26.643Z,7.75
2018-01-26T01:29:54.202Z,7.77
2018-01-26T01:32:21.732Z,7.71
2018-01-26T01:34:49.323Z,7.70
2018-01-26T01:37:16.848Z,7.69
2018-01-26T01:39:44.395Z,7.67
2018-01-26T01:42:11.999Z,7.69
2018-01-26T01:44:39.581Z,7.68
2018-01-26T01:47:07.112Z,7.67
2018-01-26T01:49:34.628Z,7.65
2018-01-26T01:52:02.344Z,7.64
2018-01-26T01:54:29.872Z,7.64
2018-01-26T01:56:57.405Z,7.65
2018-01-26T01:59:25.033Z,7.65
2018-01-26T02:01:52.582Z,7.66
2018-01-26T02:04:20.127Z,7.63
2018-01-26T02:06:47.648Z,7.64
2018-01-26T02:09:15.276Z,7.65
2018-01-26T02:11:42.850Z,7.67
2018-01-26T02:14:10.357Z,7.69
2018-01-26T02:16:38.041Z,7.69
2018-01-26T02:19:05.594Z,7.68
2018-01-26T02:21:33.155Z,7.67
2018-01-26T02:24:00.734Z,7.67
2018-01-26T02:26:28.494Z,7.67
2018-01-26T02:28:56.020Z,7.68
2018-01-26T02:31:23.552Z,7.68
2018-01-26T02:33:51.174Z,7.67
2018-01-26T02:36:18.700Z,7.65
2018-01-26T02:38:46.224Z,7.65
2018-01-26T02:41:13.752Z,7.67
2018-01-26T02:43:41.257Z,7.69
2018-01-26T02:46:08.819Z,7.71
2018-01-26T02:48:36.428Z,7.71
2018-01-26T02:51:03.943Z,7.72
2018-01-26T02:53:31.477Z,7.72
2018-01-26T02:55:59.105Z,7.74
2018-01-26T02:58:26.613Z,7.73
2018-01-26T03:00:54.309Z,7.74
2018-01-26T03:03:21.861Z,7.74
2018-01-26T03:05:49.445Z,7.75
2018-01-26T03:08:16.948Z,7.76
2018-01-26T03:10:44.565Z,7.76
2018-01-26T03:13:12.080Z,7.67
2018-01-26T03:15:39.774Z,7.68
2018-01-26T03:18:07.301Z,7.67
2018-01-26T03:20:34.888Z,7.68
2018-01-26T03:23:02.426Z,7.71
2018-01-26T03:25:29.933Z,7.71
2018-01-26T03:27:57.468Z,7.72
2018-01-26T03:30:25.027Z,7.74
2018-01-26T03:32:52.604Z,7.73
2018-01-26T03:35:20.113Z,7.64
2018-01-26T03:37:47.661Z,7.62
2018-01-26T03:40:15.213Z,7.63
2018-01-26T03:42:42.745Z,7.67
2018-01-26T03:45:10.769Z,7.66
2018-01-26T03:47:38.269Z,7.59
2018-01-26T03:50:05.803Z,7.57
2018-01-26T03:52:39.836Z,7.55
2018-01-26T03:55:07.368Z,7.53
2018-01-26T03:57:34.873Z,7.50
2018-01-26T04:00:02.496Z,7.51
2018-01-26T04:02:30.156Z,7.53
2018-01-26T04:04:57.696Z,7.56
2018-01-26T04:07:25.244Z,7.58
2018-01-26T04:09:52.772Z,7.59
2018-01-26T04:12:20.290Z,7.60
2018-01-26T04:14:47.856Z,7.62
2018-01-26T04:17:15.388Z,7.56
2018-01-26T04:19:42.967Z,7.51
2018-01-26T04:22:10.521Z,7.51
2018-01-26T04:24:38.029Z,7.44
2018-01-26T04:27:05.537Z,7.38
2018-01-26T04:29:33.075Z,7.34
2018-01-26T04:32:00.584Z,7.32
2018-01-26T04:34:28.123Z,7.31
2018-01-26T04:36:55.629Z,7.27
2018-01-26T04:39:23.172Z,7.17
2018-01-26T04:41:50.740Z,7.09
2018-01-26T04:44:18.253Z,7.05
2018-01-26T04:46:45.760Z,7.02
2018-01-26T04:49:13.371Z,6.95
2018-01-26T04:51:40.931Z,6.95
2018-01-26T04:54:08.433Z,6.95
2018-01-26T04:56:35.960Z,6.95
2018-01-26T04:59:03.480Z,6.94
2018-01-26T05:01:31.085Z,6.92
2018-01-26T05:03:58.596Z,6.88
2018-01-26T05:06:26.181Z,6.86
2018-01-26T05:08:53.697Z,6.81
2018-01-26T05:11:21.260Z,6.80
2018-01-26T05:13:48.887Z,6.81
2018-01-26T05:16:16.393Z,6.78
2018-01-26T05:18:43.894Z,6.73
2018-01-26T05:21:11.417Z,6.72
2018-01-26T05:23:38.922Z,6.72
2018-01-26T05:26:06.455Z,6.71
2018-01-26T05:28:33.980Z,6.70
2018-01-26T05:31:01.508Z,6.71
2018-01-26T05:33:29.051Z,6.65
2018-01-26T05:35:56.569Z,6.66
2018-01-26T05:38:24.169Z,6.65
2018-01-26T05:40:51.715Z,6.61
2018-01-26T05:43:19.292Z,6.58
2018-01-26T05:45:46.938Z,6.50
2018-01-26T05:48:14.440Z,6.46
2018-01-26T05:50:41.956Z,6.40
2018-01-26T05:53:09.468Z,6.33
2018-01-26T05:55:37.085Z,6.27
2018-01-26T05:58:04.626Z,6.28
2018-01-26T06:00:32.195Z,6.24
2018-01-26T06:02:59.719Z,6.27
2018-01-26T06:05:27.320Z,6.29
2018-01-26T06:07:54.972Z,6.29
2018-01-26T06:10:22.486Z,6.28
2018-01-26T06:12:50.025Z,6.24
2018-01-26T06:15:17.552Z,6.24
2018-01-26T06:17:45.086Z,6.25
2018-01-26T06:20:12.627Z,6.27
2018-01-26T06:22:40.169Z,6.22
2018-01-26T06:25:07.697Z,6.22
2018-01-26T06:27:35.241Z,6.21
2018-01-26T06:30:02.750Z,6.21
2018-01-26T06:32:30.296Z,6.17
2018-01-26T06:34:57.937Z,6.14
2018-01-26T06:37:25.455Z,6.06
2018-01-26T06:39:53.048Z,6.05
2018-01-26T06:42:20.708Z,6.04
2018-01-26T06:44:48.213Z,5.98
2018-01-26T06:47:15.721Z,5.94
2018-01-26T06:49:43.274Z,5.90
2018-01-26T06:52:10.858Z,5.90
2018-01-26T06:54:38.448Z,5.94
2018-01-26T06:57:05.960Z,5.95
2018-01-26T06:59:33.465Z,5.92
2018-01-26T07:02:01.020Z,5.92
2018-01-26T07:04:28.527Z,5.87
2018-01-26T07:06:56.029Z,5.87
2018-01-26T07:09:23.592Z,5.83
2018-01-26T07:11:51.182Z,5.83
2018-01-26T07:14:18.713Z,5.85
2018-01-26T07:16:46.338Z,5.86
2018-01-26T07:19:13.899Z,5.90
2018-01-26T07:21:41.477Z,5.94
2018-01-26T07:24:08.993Z,5.88
2018-01-26T07:26:36.575Z,5.90
2018-01-26T07:29:04.224Z,5.93
2018-01-26T07:31:31.738Z,5.96
2018-01-26T07:33:59.356Z,5.95
2018-01-26T07:36:26.900Z,5.93
2018-01-26T07:38:54.437Z,5.92
2018-01-26T07:41:21.988Z,5.92
2018-01-26T07:43:49.503Z,5.95
2018-01-26T07:46:17.035Z,5.98
2018-01-26T07:48:44.600Z,6.01
2018-01-26T07:51:12.176Z,5.94
2018-01-26T07:53:39.681Z,5.85
2018-01-26T07:56:07.285Z,5.86
2018-01-26T07:58:34.841Z,5.90
2018-01-26T08:01:02.362Z,5.85
2018-01-26T08:03:30.055Z,5.86
2018-01-26T08:05:57.645Z,5.87
2018-01-26T08:08:25.186Z,5.85
2018-01-26T08:10:52.748Z,5.88
2018-01-26T08:13:20.321Z,5.89
2018-01-26T08:15:47.849Z,5.86
2018-01-26T08:18:15.357Z,5.85
2018-01-26T08:20:42.970Z,5.91
2018-01-26T08:23:10.487Z,5.92
2018-01-26T08:25:38.014Z,5.94
2018-01-26T08:28:05.569Z,5.93
2018-01-26T08:30:33.102Z,5.89
2018-01-26T08:33:00.605Z,5.87
2018-01-26T08:35:28.165Z,5.78
2018-01-26T08:37:55.700Z,5.79
2018-01-26T08:40:23.243Z,5.85
2018-01-26T08:42:50.781Z,5.89
2018-01-26T08:45:18.358Z,5.93
2018-01-26T08:47:45.917Z,5.96
2018-01-26T08:50:13.492Z,5.94
2018-01-26T08:52:41.060Z,5.90
2018-01-26T08:55:19.405Z,5.88
2018-01-26T08:57:46.950Z,5.87
2018-01-26T09:00:14.468Z,5.84
2018-01-26T09:02:41.997Z,5.80
2018-01-26T09:05:09.558Z,5.72
2018-01-26T09:07:37.092Z,5.73
2018-01-26T09:10:04.665Z,5.76
2018-01-26T09:12:32.262Z,5.74
2018-01-26T09:14:59.769Z,5.71
2018-01-26T09:17:27.492Z,5.75
2018-01-26T09:19:55.000Z,5.73
2018-01-26T09:22:22.512Z,5.73
2018-01-26T09:24:50.076Z,5.72
2018-01-26T09:27:17.649Z,5.78
2018-01-26T09:29:45.178Z,5.86
2018-01-26T09:32:12.713Z,5.91
2018-01-26T09:34:40.296Z,5.90
2018-01-26T09:37:07.857Z,5.95
2018-01-26T09:39:35.389Z,5.99
2018-01-26T09:42:02.952Z,6.02
2018-01-26T09:44:30.508Z,6.01
2018-01-26T09:46:58.094Z,5.97
2018-01-26T09:49:25.723Z,5.97
2018-01-26T09:51:53.256Z,6.01
2018-01-26T09:54:20.785Z,6.02
2018-01-26T09:56:48.330Z,6.08
2018-01-26T09:59:16.198Z,6.09
2018-01-26T10:01:43.729Z,6.11
2018-01-26T10:04:11.316Z,6.14
2018-01-26T10:06:38.870Z,6.17
2018-01-26T10:09:06.372Z,6.23
2018-01-26T10:11:33.912Z,6.27
2018-01-26T10:14:01.558Z,6.28
2018-01-26T10:16:29.063Z,6.24
2018-01-26T10:18:56.594Z,6.21
2018-01-26T10:21:24.141Z,6.14
2018-01-26T10:23:51.664Z,6.14
2018-01-26T10:26:19.358Z,6.18
2018-01-26T10:28:46.901Z,6.23
2018-01-26T10:31:14.474Z,6.26
2018-01-26T10:33:42.001Z,6.30
2018-01-26T10:36:09.508Z,6.33
2018-01-26T10:38:37.013Z,6.36
2018-01-26T10:41:04.557Z,6.34
2018-01-26T10:43:32.074Z,6.37
2018-01-26T10:45:59.604Z,6.40
2018-01-26T10:48:27.136Z,6.40
2018-01-26T10:50:54.692Z,6.40
2018-01-26T10:53:22.244Z,6.46
2018-01-26T10:55:49.781Z,6.46
2018-01-26T10:58:17.314Z,6.46
2018-01-26T11:00:44.846Z,6.46
2018-01-26T11:03:12.453Z,6.48
2018-01-26T11:05:39.990Z,6.50
2018-01-26T11:08:07.548Z,6.58
2018-01-26T11:10:35.065Z,6.67
2018-01-26T11:13:02.595Z,6.66
2018-01-26T11:15:30.122Z,6.68
2018-01-26T11:17:57.680Z,6.74
2018-01-26T11:20:25.257Z,6.76
2018-01-26T11:22:52.789Z,6.76
2018-01-26T11:25:20.344Z,6.75
2018-01-26T11:27:47.934Z,6.76
2018-01-26T11:30:15.475Z,6.74
2018-01-26T11:32:43.005Z,6.78
2018-01-26T11:35:10.869Z,6.77
2018-01-26T11:37:38.405Z,6.75
2018-01-26T11:40:06.060Z,6.77
2018-01-26T11:42:33.647Z,6.81
2018-01-26T11:45:01.260Z,6.87
2018-01-26T11:47:28.805Z,6.90
2018-01-26T11:49:56.316Z,6.94
2018-01-26T11:52:23.874Z,6.98
2018-01-26T11:54:51.400Z,6.95
2018-01-26T11:57:18.905Z,6.91
2018-01-26T11:59:46.466Z,6.95
2018-01-26T12:02:14.092Z,6.99
2018-01-26T12:04:41.594Z,7.00
2018-01-26T12:07:09.108Z,6.99
2018-01-26T12:09:36.649Z,7.04
2018-01-26T12:12:04.188Z,7.10
2018-01-26T12:14:31.758Z,7.13
2018-01-26T12:16:59.287Z,7.15
2018-01-26T12:19:26.812Z,7.76
2018-01-26T12:21:54.349Z,7.99
2018-01-26T12:24:21.875Z,8.03
2018-01-26T12:26:49.405Z,7.83
2018-01-26T12:29:16.930Z,7.75
2018-01-26T12:31:44.485Z,7.66
2018-01-26T12:34:12.005Z,7.71
2018-01-26T12:36:39.552Z,7.68
2018-01-26T12:39:07.139Z,7.67
2018-01-26T12:41:34.670Z,7.64
2018-01-26T12:44:02.183Z,7.61
2018-01-26T12:46:29.708Z,7.61
2018-01-26T12:48:57.405Z,7.67
2018-01-26T12:51:24.932Z,7.68
2018-01-26T12:53:52.527Z,7.74
2018-01-26T12:56:20.236Z,7.82
2018-01-26T12:58:47.781Z,7.82
2018-01-26T13:01:15.326Z,7.92
2018-01-26T13:03:42.878Z,7.99
2018-01-26T13:06:10.410Z,7.98
2018-01-26T13:08:37.929Z,8.00
2018-01-26T13:11:05.461Z,8.04
2018-01-26T13:13:32.995Z,8.06
2018-01-26T13:16:00.554Z,8.08
2018-01-26T13:18:28.085Z,8.08
2018-01-26T13:20:55.604Z,8.07
2018-01-26T13:23:23.193Z,7.99
2018-01-26T13:25:50.714Z,7.95
2018-01-26T13:28:18.262Z,7.93
2018-01-26T13:30:45.818Z,7.87
2018-01-26T13:33:13.323Z,7.85
2018-01-26T13:35:40.885Z,7.79
2018-01-26T13:38:08.409Z,7.78
2018-01-26T13:40:35.916Z,7.81
2018-01-26T13:43:03.461Z,7.79
2018-01-26T13:45:30.985Z,7.78
2018-01-26T13:47:58.631Z,7.80
2018-01-26T13:50:26.213Z,7.81
2018-01-26T13:52:53.760Z,7.74
2018-01-26T13:55:21.286Z,7.73
2018-01-26T13:57:48.823Z,7.76
2018-01-26T14:00:16.350Z,7.74
2018-01-26T14:02:43.903Z,7.74
2018-01-26T14:05:12.279Z,7.74
2018-01-26T14:07:39.810Z,7.74
2018-01-26T14:10:07.325Z,7.74
2018-01-26T14:12:34.873Z,7.68
2018-01-26T14:15:02.419Z,7.71
2018-01-26T14:17:29.963Z,7.73
2018-01-26T14:19:58.414Z,7.77
2018-01-26T14:22:25.959Z,7.73
2018-01-26T14:24:53.489Z,7.76
2018-01-26T14:27:21.020Z,7.81
2018-01-26T14:29:48.787Z,7.84
2018-01-26T14:32:16.608Z,7.87
2018-01-26T14:34:44.209Z,7.88
2018-01-26T14:37:11.764Z,7.77
2018-01-26T14:39:39.297Z,7.73
2018-01-26T14:42:06.797Z,7.68
2018-01-26T14:44:34.469Z,7.71
2018-01-26T14:47:02.010Z,7.77
2018-01-26T14:49:29.536Z,7.85
2018-01-26T14:51:57.067Z,7.88
2018-01-26T14:54:24.589Z,7.87
2018-01-26T14:56:52.129Z,7.87
2018-01-26T14:59:19.702Z,7.85
2018-01-26T15:01:47.237Z,7.85
2018-01-26T15:04:14.792Z,7.85
2018-01-26T15:06:42.316Z,7.88
2018-01-26T15:09:09.852Z,7.85
2018-01-26T15:11:37.404Z,7.85
2018-01-26T15:14:04.944Z,7.76
2018-01-26T15:16:32.496Z,7.74
2018-01-26T15:19:00.043Z,7.74
2018-01-26T15:21:27.577Z,7.71
2018-01-26T15:23:55.298Z,7.74
2018-01-26T15:26:22.814Z,7.78
2018-01-26T15:28:50.323Z,7.81
2018-01-26T15:31:17.844Z,7.84
2018-01-26T15:33:45.352Z,7.85
2018-01-26T15:36:12.883Z,7.86
2018-01-26T15:38:40.400Z,7.87
2018-01-26T15:41:08.021Z,7.85
2018-01-26T15:43:35.578Z,7.83
2018-01-26T15:46:03.084Z,7.78
2018-01-26T15:48:30.633Z,7.76
2018-01-26T15:50:58.135Z,7.78
2018-01-26T15:53:25.733Z,7.77
2018-01-26T15:55:53.257Z,7.74
2018-01-26T15:58:20.764Z,7.75
2018-01-26T16:00:48.328Z,7.71
2018-01-26T16:03:15.849Z,7.71
2018-01-26T16:05:43.429Z,7.69
2018-01-26T16:08:10.973Z,7.69
2018-01-26T16:10:38.545Z,7.65
2018-01-26T16:13:06.092Z,7.63
2018-01-26T16:15:33.624Z,7.63
2018-01-26T16:18:01.208Z,7.62
2018-01-26T16:20:28.808Z,7.61
2018-01-26T16:22:56.369Z,7.61
2018-01-26T16:25:23.908Z,7.58
2018-01-26T16:27:51.439Z,7.61
2018-01-26T16:30:18.988Z,7.61
2018-01-26T16:32:46.521Z,7.64
2018-01-26T16:35:14.026Z,7.67
2018-01-26T16:37:41.686Z,7.68
2018-01-26T16:40:09.225Z,7.67
2018-01-26T16:42:36.834Z,7.66
2018-01-26T16:45:04.574Z,7.66
2018-01-26T16:47:32.073Z,7.63
2018-01-26T16:49:59.600Z,7.63
2018-01-26T16:52:27.132Z,7.63
2018-01-26T16:54:54.651Z,7.61
2018-01-26T16:57:22.372Z,7.61
2018-01-26T16:59:49.945Z,7.61
2018-01-26T17:02:17.476Z,7.61
2018-01-26T17:04:45.022Z,7.59
2018-01-26T17:07:12.537Z,7.60
2018-01-26T17:09:40.075Z,7.61
2018-01-26T17:12:07.626Z,7.62
2018-01-26T17:14:35.179Z,7.62
2018-01-26T17:17:02.739Z,7.61
2018-01-26T17:19:30.343Z,7.57
2018-01-26T17:21:58.135Z,7.59
2018-01-26T17:24:25.688Z,7.60
2018-01-26T17:26:53.248Z,7.60
2018-01-26T17:29:20.764Z,7.60
2018-01-26T17:31:48.324Z,7.60
2018-01-26T17:34:16.296Z,7.61
2018-01-26T17:36:43.813Z,7.61
2018-01-26T17:39:11.381Z,7.63
2018-01-26T17:41:38.894Z,7.65
2018-01-26T17:44:06.397Z,7.66
2018-01-26T17:46:33.917Z,7.66
2018-01-26T17:49:01.445Z,7.67
2018-01-26T17:51:28.970Z,7.67
2018-01-26T17:53:56.565Z,7.69
2018-01-26T17:56:24.122Z,7.70
2018-01-26T17:58:51.786Z,7.74
2018-01-26T18:01:19.292Z,7.76
2018-01-26T18:03:46.845Z,7.78
2018-01-26T18:06:14.467Z,7.80
2018-01-26T18:08:41.991Z,7.80
2018-01-26T18:11:09.520Z,7.83
2018-01-26T18:13:37.042Z,7.83
2018-01-26T18:16:04.623Z,7.77
2018-01-26T18:18:32.176Z,7.74
2018-01-26T18:20:59.706Z,7.73
2018-01-26T18:23:27.253Z,7.73
2018-01-26T18:25:54.796Z,7.71
2018-01-26T18:28:22.393Z,7.68
2018-01-26T18:30:49.937Z,7.69
2018-01-26T18:33:17.505Z,7.69
2018-01-26T18:35:45.062Z,7.65
2018-01-26T18:38:12.576Z,7.62
2018-01-26T18:40:40.077Z,7.60
2018-01-26T18:43:07.961Z,7.59
2018-01-26T18:45:35.520Z,7.61
2018-01-26T18:48:03.051Z,7.58
2018-01-26T18:50:30.625Z,7.57
2018-01-26T18:52:58.129Z,7.55
2018-01-26T18:55:25.668Z,7.57
2018-01-26T18:57:53.215Z,7.61
2018-01-26T19:00:20.757Z,7.65
2018-01-26T19:02:48.357Z,7.69
2018-01-26T19:05:15.920Z,7.71
2018-01-26T19:07:43.570Z,7.73
2018-01-26T19:10:11.095Z,7.74
2018-01-26T19:12:38.637Z,7.75
2018-01-26T19:15:06.232Z,7.71
2018-01-26T19:17:33.781Z,7.68
2018-01-26T19:20:01.327Z,7.67
2018-01-26T19:22:28.894Z,7.65
2018-01-26T19:24:56.420Z,7.65
2018-01-26T19:27:23.939Z,7.63
2018-01-26T19:29:51.445Z,7.64
2018-01-26T19:32:18.992Z,7.66
2018-01-26T19:34:46.515Z,7.63
2018-01-26T19:37:14.081Z,7.61
2018-01-26T19:39:41.613Z,7.60
2018-01-26T19:42:09.143Z,7.60
2018-01-26T19:44:36.644Z,7.62
2018-01-26T19:47:04.192Z,7.62
2018-01-26T19:49:31.721Z,7.62
2018-01-26T19:51:59.320Z,7.63
2018-01-26T19:54:26.904Z,7.63
2018-01-26T19:56:54.434Z,7.65
2018-01-26T19:59:21.981Z,7.65
2018-01-26T20:01:49.576Z,7.65
2018-01-26T20:07:29.019Z,7.63
2018-01-26T20:09:56.545Z,7.57
2018-01-26T20:12:24.065Z,7.55
2018-01-26T20:14:51.713Z,7.56
2018-01-26T20:17:19.241Z,7.57
2018-01-26T20:19:46.780Z,7.56
2018-01-26T20:22:14.400Z,7.55
2018-01-26T20:24:41.924Z,7.54
2018-01-26T20:27:09.497Z,7.54
2018-01-26T20:29:37.026Z,7.53
2018-01-26T20:32:04.566Z,7.50
2018-01-26T20:34:32.109Z,7.49
2018-01-26T20:36:59.649Z,7.46
2018-01-26T20:39:27.208Z,7.47
2018-01-26T20:41:54.746Z,7.46
2018-01-26T20:44:22.282Z,7.47
2018-01-26T20:46:49.781Z,7.51
2018-01-26T20:49:17.329Z,7.51
2018-01-26T20:51:44.900Z,7.49
2018-01-26T20:54:12.443Z,7.44
2018-01-26T20:56:40.029Z,7.48
2018-01-26T20:59:07.565Z,7.52
2018-01-26T21:01:35.128Z,7.61
2018-01-26T21:04:02.656Z,7.60
2018-01-26T21:06:30.180Z,7.61
2018-01-26T21:08:57.717Z,7.62
2018-01-26T21:11:25.264Z,7.59
2018-01-26T21:13:52.789Z,7.52
2018-01-26T21:16:20.379Z,7.49
2018-01-26T21:18:47.905Z,7.50
2018-01-26T21:21:15.516Z,7.54
2018-01-26T21:23:43.033Z,7.56
2018-01-26T21:26:10.638Z,7.56
2018-01-26T21:28:38.151Z,7.56
2018-01-26T21:31:05.712Z,7.54
2018-01-26T21:33:33.249Z,7.54
2018-01-26T21:36:00.783Z,7.54
2018-01-26T21:38:28.311Z,7.53
2018-01-26T21:40:55.888Z,7.50
2018-01-26T21:43:23.456Z,7.55
2018-01-26T21:45:50.977Z,7.57
2018-01-26T21:48:18.496Z,7.57
2018-01-26T21:50:46.033Z,7.55
2018-01-26T21:53:13.593Z,7.53
2018-01-26T21:55:41.134Z,7.55
2018-01-26T21:58:08.690Z,7.49
2018-01-26T22:00:36.217Z,7.52
2018-01-26T22:03:03.901Z,7.52
2018-01-26T22:05:31.401Z,7.50
2018-01-26T22:07:58.926Z,7.47
2018-01-26T22:10:26.513Z,7.47
2018-01-26T22:12:54.035Z,7.46
2018-01-26T22:15:21.584Z,7.46
2018-01-26T22:17:49.166Z,7.47
2018-01-26T22:20:16.829Z,7.50
2018-01-26T22:22:44.402Z,7.52
2018-01-26T22:25:11.918Z,7.52
2018-01-26T22:27:39.477Z,7.47
2018-01-26T22:30:06.999Z,7.46
2018-01-26T22:32:34.510Z,7.55
2018-01-26T22:35:02.025Z,7.56
2018-01-26T22:37:29.527Z,7.53
2018-01-26T22:39:57.072Z,7.54
2018-01-26T22:42:24.652Z,7.54
2018-01-26T22:44:52.188Z,7.52
2018-01-26T22:47:19.700Z,7.46
2018-01-26T22:49:47.263Z,7.43
2018-01-26T22:52:14.773Z,7.43
2018-01-26T22:54:42.280Z,7.43
2018-01-26T22:57:09.797Z,7.47
2018-01-26T22:59:37.320Z,7.45
2018-01-26T23:02:04.873Z,7.45
2018-01-26T23:04:32.420Z,7.46
2018-01-26T23:06:59.949Z,7.44
2018-01-26T23:09:27.449Z,7.43
2018-01-26T23:11:54.976Z,7.44
2018-01-26T23:14:22.514Z,7.47
2018-01-26T23:16:50.019Z,7.58
2018-01-26T23:19:17.526Z,7.60
2018-01-26T23:21:45.332Z,7.58
2018-01-26T23:24:12.860Z,7.52
2018-01-26T23:26:40.361Z,7.47
2018-01-26T23:29:07.912Z,7.37
2018-01-26T23:31:35.434Z,7.37
2018-01-26T23:34:02.965Z,7.40
2018-01-26T23:36:30.523Z,7.37
2018-01-26T23:38:58.057Z,7.40
2018-01-26T23:41:25.621Z,7.41
2018-01-26T23:43:53.172Z,7.34
2018-01-26T23:46:20.697Z,7.39
2018-01-26T23:48:48.237Z,7.38
2018-01-26T23:51:15.809Z,7.36
2018-01-26T23:53:43.384Z,7.36
2018-01-26T23:56:10.898Z,7.42
2018-01-26T23:58:38.401Z,7.44
